sensor_id;sensor_type;location;lat;lon;timestamp;temperature;humidity
19397;DHT22;9834;48.076;11.878;2023-07-28T00:02:16;13.50;99.90
19397;DHT22;9834;48.076;11.878;2023-07-28T00:04:43;13.50;99.90
19397;DHT22;9834;48.076;11.878;2023-07-28T00:07:10;13.50;99.90
19397;DHT22;9834;48.076;11.878;2023-07-28T00:09:37;13.40;99.90
19397;DHT22;9834;48.076;11.878;2023-07-28T00:12:04;13.40;99.90
19397;DHT22;9834;48.076;11.878;2023-07-28T00:14:31;13.40;99.90
19397;DHT22;9834;48.076;11.878;2023-07-28T00:17:00;13.30;99.90
19397;DHT22;9834;48.076;11.878;2023-07-28T00:19:27;13.30;99.90
19397;DHT22;9834;48.076;11.878;2023-07-28T00:21:55;13.30;99.90
19397;DHT22;9834;48.076;11.878;2023-07-28T00:24:22;13.30;99.90
19397;DHT22;9834;48.076;11.878;2023-07-28T00:26:48;13.20;99.90
19397;DHT22;9834;48.076;11.878;2023-07-28T00:29:15;13.20;99.90
19397;DHT22;9834;48.076;11.878;2023-07-28T00:31:42;13.20;99.90
19397;DHT22;9834;48.076;11.878;2023-07-28T00:34:10;13.20;99.90
19397;DHT22;9834;48.076;11.878;2023-07-28T00:36:37;13.10;99.90
19397;DHT22;9834;48.076;11.878;2023-07-28T00:39:04;13.20;99.90
19397;DHT22;9834;48.076;11.878;2023-07-28T00:41:31;13.20;99.90
19397;DHT22;9834;48.076;11.878;2023-07-28T00:43:58;13.20;99.90
19397;DHT22;9834;48.076;11.878;2023-07-28T00:46:25;13.30;99.90
19397;DHT22;9834;48.076;11.878;2023-07-28T00:48:52;13.40;99.90
19397;DHT22;9834;48.076;11.878;2023-07-28T00:51:21;13.50;99.90
19397;DHT22;9834;48.076;11.878;2023-07-28T00:53:48;13.60;99.90
19397;DHT22;9834;48.076;11.878;2023-07-28T00:56:15;13.70;99.90
19397;DHT22;9834;48.076;11.878;2023-07-28T00:58:42;13.80;99.90
19397;DHT22;9834;48.076;11.878;2023-07-28T01:01:09;13.80;99.90
19397;DHT22;9834;48.076;11.878;2023-07-28T01:03:36;13.80;99.90
19397;DHT22;9834;48.076;11.878;2023-07-28T01:06:11;13.90;99.90
19397;DHT22;9834;48.076;11.878;2023-07-28T01:08:52;13.90;99.90
19397;DHT22;9834;48.076;11.878;2023-07-28T01:11:21;13.90;99.90
19397;DHT22;9834;48.076;11.878;2023-07-28T01:13:48;13.90;99.90
19397;DHT22;9834;48.076;11.878;2023-07-28T01:16:15;13.90;99.90
19397;DHT22;9834;48.076;11.878;2023-07-28T01:18:42;13.90;99.90
19397;DHT22;9834;48.076;11.878;2023-07-28T01:21:16;13.90;99.90
19397;DHT22;9834;48.076;11.878;2023-07-28T01:23:59;14.00;99.90
19397;DHT22;9834;48.076;11.878;2023-07-28T01:26:32;14.00;99.90
19397;DHT22;9834;48.076;11.878;2023-07-28T01:29:00;14.00;99.90
19397;DHT22;9834;48.076;11.878;2023-07-28T01:31:27;13.90;99.90
19397;DHT22;9834;48.076;11.878;2023-07-28T01:33:54;13.90;99.90
19397;DHT22;9834;48.076;11.878;2023-07-28T01:36:21;13.90;99.90
19397;DHT22;9834;48.076;11.878;2023-07-28T01:38:48;13.90;99.90
19397;DHT22;9834;48.076;11.878;2023-07-28T01:41:15;13.80;99.90
19397;DHT22;9834;48.076;11.878;2023-07-28T01:43:43;13.80;99.90
19397;DHT22;9834;48.076;11.878;2023-07-28T01:46:10;13.70;99.90
19397;DHT22;9834;48.076;11.878;2023-07-28T01:48:37;13.60;99.90
19397;DHT22;9834;48.076;11.878;2023-07-28T01:51:04;13.50;99.90
19397;DHT22;9834;48.076;11.878;2023-07-28T01:53:31;13.40;99.90
19397;DHT22;9834;48.076;11.878;2023-07-28T01:55:58;13.30;99.90
19397;DHT22;9834;48.076;11.878;2023-07-28T01:58:26;13.20;99.90
19397;DHT22;9834;48.076;11.878;2023-07-28T02:00:54;13.20;99.90
19397;DHT22;9834;48.076;11.878;2023-07-28T02:03:21;13.10;99.90
19397;DHT22;9834;48.076;11.878;2023-07-28T02:05:48;13.10;99.90
19397;DHT22;9834;48.076;11.878;2023-07-28T02:08:15;13.00;99.90
19397;DHT22;9834;48.076;11.878;2023-07-28T02:10:43;12.90;99.90
19397;DHT22;9834;48.076;11.878;2023-07-28T02:13:10;12.90;99.90
19397;DHT22;9834;48.076;11.878;2023-07-28T02:15:37;12.80;99.90
19397;DHT22;9834;48.076;11.878;2023-07-28T02:18:05;12.80;99.90
19397;DHT22;9834;48.076;11.878;2023-07-28T02:20:32;12.80;99.90
19397;DHT22;9834;48.076;11.878;2023-07-28T02:23:02;12.70;99.90
19397;DHT22;9834;48.076;11.878;2023-07-28T02:25:30;12.70;99.90
19397;DHT22;9834;48.076;11.878;2023-07-28T02:27:57;12.70;99.90
19397;DHT22;9834;48.076;11.878;2023-07-28T02:30:24;12.70;99.90
19397;DHT22;9834;48.076;11.878;2023-07-28T02:32:51;12.60;99.90
19397;DHT22;9834;48.076;11.878;2023-07-28T02:35:19;12.60;99.90
19397;DHT22;9834;48.076;11.878;2023-07-28T02:37:46;12.60;99.90
19397;DHT22;9834;48.076;11.878;2023-07-28T02:40:13;12.50;99.90
19397;DHT22;9834;48.076;11.878;2023-07-28T02:42:40;12.50;99.90
19397;DHT22;9834;48.076;11.878;2023-07-28T02:45:07;12.50;99.90
19397;DHT22;9834;48.076;11.878;2023-07-28T02:47:35;12.40;99.90
19397;DHT22;9834;48.076;11.878;2023-07-28T02:50:03;12.40;99.90
19397;DHT22;9834;48.076;11.878;2023-07-28T02:52:31;12.40;99.90
19397;DHT22;9834;48.076;11.878;2023-07-28T02:54:58;12.40;99.90
19397;DHT22;9834;48.076;11.878;2023-07-28T02:57:25;12.30;99.90
19397;DHT22;9834;48.076;11.878;2023-07-28T02:59:52;12.30;99.90
19397;DHT22;9834;48.076;11.878;2023-07-28T03:02:20;12.20;99.90
19397;DHT22;9834;48.076;11.878;2023-07-28T03:04:47;12.20;99.90
19397;DHT22;9834;48.076;11.878;2023-07-28T03:07:14;12.20;99.90
19397;DHT22;9834;48.076;11.878;2023-07-28T03:09:42;12.10;99.90
19397;DHT22;9834;48.076;11.878;2023-07-28T03:12:09;12.10;99.90
19397;DHT22;9834;48.076;11.878;2023-07-28T03:14:36;12.10;99.90
19397;DHT22;9834;48.076;11.878;2023-07-28T03:17:03;12.10;99.90
19397;DHT22;9834;48.076;11.878;2023-07-28T03:19:30;12.10;99.90
19397;DHT22;9834;48.076;11.878;2023-07-28T03:22:07;12.10;99.90
19397;DHT22;9834;48.076;11.878;2023-07-28T03:24:34;12.00;99.90
19397;DHT22;9834;48.076;11.878;2023-07-28T03:27:03;12.00;99.90
19397;DHT22;9834;48.076;11.878;2023-07-28T03:29:30;12.00;99.90
19397;DHT22;9834;48.076;11.878;2023-07-28T03:31:57;12.00;99.90
19397;DHT22;9834;48.076;11.878;2023-07-28T03:34:24;12.00;99.90
19397;DHT22;9834;48.076;11.878;2023-07-28T03:36:52;12.00;99.90
19397;DHT22;9834;48.076;11.878;2023-07-28T03:39:19;12.10;99.90
19397;DHT22;9834;48.076;11.878;2023-07-28T03:41:48;12.10;99.90
19397;DHT22;9834;48.076;11.878;2023-07-28T03:44:16;12.20;99.90
19397;DHT22;9834;48.076;11.878;2023-07-28T03:46:45;12.30;99.90
19397;DHT22;9834;48.076;11.878;2023-07-28T03:49:12;12.30;99.90
19397;DHT22;9834;48.076;11.878;2023-07-28T03:51:39;12.40;99.90
19397;DHT22;9834;48.076;11.878;2023-07-28T03:54:06;12.50;99.90
19397;DHT22;9834;48.076;11.878;2023-07-28T03:56:33;12.60;99.90
19397;DHT22;9834;48.076;11.878;2023-07-28T03:58:59;12.60;99.90
19397;DHT22;9834;48.076;11.878;2023-07-28T04:01:28;12.80;99.90
19397;DHT22;9834;48.076;11.878;2023-07-28T04:03:55;12.90;99.90
19397;DHT22;9834;48.076;11.878;2023-07-28T04:06:39;13.00;99.90
19397;DHT22;9834;48.076;11.878;2023-07-28T04:09:07;13.10;99.90
19397;DHT22;9834;48.076;11.878;2023-07-28T04:11:34;13.20;99.90
19397;DHT22;9834;48.076;11.878;2023-07-28T04:14:01;13.30;99.90
19397;DHT22;9834;48.076;11.878;2023-07-28T04:16:30;13.40;99.90
19397;DHT22;9834;48.076;11.878;2023-07-28T04:18:57;13.40;99.90
19397;DHT22;9834;48.076;11.878;2023-07-28T04:21:31;13.50;99.90
19397;DHT22;9834;48.076;11.878;2023-07-28T04:23:57;13.60;99.90
19397;DHT22;9834;48.076;11.878;2023-07-28T04:26:25;13.70;99.90
19397;DHT22;9834;48.076;11.878;2023-07-28T04:28:51;13.80;99.90
19397;DHT22;9834;48.076;11.878;2023-07-28T04:31:18;13.90;99.90
19397;DHT22;9834;48.076;11.878;2023-07-28T04:33:46;13.90;99.90
19397;DHT22;9834;48.076;11.878;2023-07-28T04:36:13;13.90;99.90
19397;DHT22;9834;48.076;11.878;2023-07-28T04:38:40;14.10;99.90
19397;DHT22;9834;48.076;11.878;2023-07-28T04:41:07;14.30;99.90
19397;DHT22;9834;48.076;11.878;2023-07-28T04:43:34;14.40;99.90
19397;DHT22;9834;48.076;11.878;2023-07-28T04:46:01;14.50;99.90
19397;DHT22;9834;48.076;11.878;2023-07-28T04:48:28;14.50;99.90
19397;DHT22;9834;48.076;11.878;2023-07-28T04:50:57;14.40;99.90
19397;DHT22;9834;48.076;11.878;2023-07-28T04:53:24;14.40;99.90
19397;DHT22;9834;48.076;11.878;2023-07-28T04:55:51;14.40;99.90
19397;DHT22;9834;48.076;11.878;2023-07-28T04:58:17;14.50;99.90
19397;DHT22;9834;48.076;11.878;2023-07-28T05:00:44;14.50;99.90
19397;DHT22;9834;48.076;11.878;2023-07-28T05:03:11;14.50;99.90
19397;DHT22;9834;48.076;11.878;2023-07-28T05:05:38;14.60;99.90
19397;DHT22;9834;48.076;11.878;2023-07-28T05:08:06;14.80;99.90
19397;DHT22;9834;48.076;11.878;2023-07-28T05:10:33;15.00;99.90
19397;DHT22;9834;48.076;11.878;2023-07-28T05:13:00;15.30;99.90
19397;DHT22;9834;48.076;11.878;2023-07-28T05:15:29;15.30;99.90
19397;DHT22;9834;48.076;11.878;2023-07-28T05:17:55;15.30;99.90
19397;DHT22;9834;48.076;11.878;2023-07-28T05:20:22;15.10;99.90
19397;DHT22;9834;48.076;11.878;2023-07-28T05:23:19;14.80;99.90
19397;DHT22;9834;48.076;11.878;2023-07-28T05:25:46;14.50;99.90
19397;DHT22;9834;48.076;11.878;2023-07-28T05:28:13;14.40;99.90
19397;DHT22;9834;48.076;11.878;2023-07-28T05:30:40;14.40;99.90
19397;DHT22;9834;48.076;11.878;2023-07-28T05:33:07;14.40;99.90
19397;DHT22;9834;48.076;11.878;2023-07-28T05:35:34;14.50;99.90
19397;DHT22;9834;48.076;11.878;2023-07-28T05:38:01;14.60;99.90
19397;DHT22;9834;48.076;11.878;2023-07-28T05:40:29;14.60;99.90
19397;DHT22;9834;48.076;11.878;2023-07-28T05:42:57;14.70;99.90
19397;DHT22;9834;48.076;11.878;2023-07-28T05:45:23;14.80;99.90
19397;DHT22;9834;48.076;11.878;2023-07-28T05:47:50;15.00;99.90
19397;DHT22;9834;48.076;11.878;2023-07-28T05:50:17;15.20;99.90
19397;DHT22;9834;48.076;11.878;2023-07-28T05:52:44;15.40;99.90
19397;DHT22;9834;48.076;11.878;2023-07-28T05:55:12;15.50;99.90
19397;DHT22;9834;48.076;11.878;2023-07-28T05:57:40;15.60;99.90
19397;DHT22;9834;48.076;11.878;2023-07-28T06:00:09;15.70;99.90
19397;DHT22;9834;48.076;11.878;2023-07-28T06:02:36;15.70;99.90
19397;DHT22;9834;48.076;11.878;2023-07-28T06:05:04;15.80;99.90
19397;DHT22;9834;48.076;11.878;2023-07-28T06:07:31;16.00;99.90
19397;DHT22;9834;48.076;11.878;2023-07-28T06:09:58;16.20;99.90
19397;DHT22;9834;48.076;11.878;2023-07-28T06:12:25;16.40;99.90
19397;DHT22;9834;48.076;11.878;2023-07-28T06:14:53;16.60;99.90
19397;DHT22;9834;48.076;11.878;2023-07-28T06:17:20;16.80;99.90
19397;DHT22;9834;48.076;11.878;2023-07-28T06:19:47;16.90;99.90
19397;DHT22;9834;48.076;11.878;2023-07-28T06:22:14;17.00;99.90
19397;DHT22;9834;48.076;11.878;2023-07-28T06:24:41;17.00;99.90
19397;DHT22;9834;48.076;11.878;2023-07-28T06:27:08;17.00;99.90
19397;DHT22;9834;48.076;11.878;2023-07-28T06:29:36;16.90;99.90
19397;DHT22;9834;48.076;11.878;2023-07-28T06:32:05;16.90;99.90
19397;DHT22;9834;48.076;11.878;2023-07-28T06:34:32;17.00;99.90
19397;DHT22;9834;48.076;11.878;2023-07-28T06:36:58;16.90;99.90
19397;DHT22;9834;48.076;11.878;2023-07-28T06:39:25;16.80;99.90
19397;DHT22;9834;48.076;11.878;2023-07-28T06:41:52;16.80;99.90
19397;DHT22;9834;48.076;11.878;2023-07-28T06:44:19;16.90;99.90
19397;DHT22;9834;48.076;11.878;2023-07-28T06:46:46;17.00;99.90
19397;DHT22;9834;48.076;11.878;2023-07-28T06:49:15;17.10;99.90
19397;DHT22;9834;48.076;11.878;2023-07-28T06:51:42;17.40;99.90
19397;DHT22;9834;48.076;11.878;2023-07-28T06:54:09;17.60;99.90
19397;DHT22;9834;48.076;11.878;2023-07-28T06:56:38;17.70;99.90
19397;DHT22;9834;48.076;11.878;2023-07-28T06:59:05;17.70;99.90
19397;DHT22;9834;48.076;11.878;2023-07-28T07:01:32;17.60;99.90
19397;DHT22;9834;48.076;11.878;2023-07-28T07:03:59;17.70;99.90
19397;DHT22;9834;48.076;11.878;2023-07-28T07:06:27;17.80;99.90
19397;DHT22;9834;48.076;11.878;2023-07-28T07:08:54;17.90;99.90
19397;DHT22;9834;48.076;11.878;2023-07-28T07:11:21;18.00;99.90
19397;DHT22;9834;48.076;11.878;2023-07-28T07:13:48;18.30;99.90
19397;DHT22;9834;48.076;11.878;2023-07-28T07:16:16;18.50;99.90
19397;DHT22;9834;48.076;11.878;2023-07-28T07:18:43;18.70;99.90
19397;DHT22;9834;48.076;11.878;2023-07-28T07:21:10;18.70;99.90
19397;DHT22;9834;48.076;11.878;2023-07-28T07:23:38;18.70;99.90
19397;DHT22;9834;48.076;11.878;2023-07-28T07:26:05;18.80;99.90
19397;DHT22;9834;48.076;11.878;2023-07-28T07:28:32;19.10;99.90
19397;DHT22;9834;48.076;11.878;2023-07-28T07:31:01;19.50;99.90
19397;DHT22;9834;48.076;11.878;2023-07-28T07:33:28;19.90;99.90
19397;DHT22;9834;48.076;11.878;2023-07-28T07:35:55;20.20;99.90
19397;DHT22;9834;48.076;11.878;2023-07-28T07:38:22;20.60;99.90
19397;DHT22;9834;48.076;11.878;2023-07-28T07:40:50;20.70;99.90
19397;DHT22;9834;48.076;11.878;2023-07-28T07:43:17;20.80;99.90
19397;DHT22;9834;48.076;11.878;2023-07-28T07:45:46;20.90;99.90
19397;DHT22;9834;48.076;11.878;2023-07-28T07:48:15;21.00;99.90
19397;DHT22;9834;48.076;11.878;2023-07-28T07:50:42;21.10;99.90
19397;DHT22;9834;48.076;11.878;2023-07-28T07:53:09;21.30;99.90
19397;DHT22;9834;48.076;11.878;2023-07-28T07:55:36;21.40;99.90
19397;DHT22;9834;48.076;11.878;2023-07-28T07:58:04;21.50;99.90
19397;DHT22;9834;48.076;11.878;2023-07-28T08:00:31;21.40;99.90
19397;DHT22;9834;48.076;11.878;2023-07-28T08:02:58;21.50;99.90
19397;DHT22;9834;48.076;11.878;2023-07-28T08:05:25;21.60;99.90
19397;DHT22;9834;48.076;11.878;2023-07-28T08:07:53;21.70;98.40
19397;DHT22;9834;48.076;11.878;2023-07-28T08:10:20;21.80;99.90
19397;DHT22;9834;48.076;11.878;2023-07-28T08:12:48;22.20;97.90
19397;DHT22;9834;48.076;11.878;2023-07-28T08:15:16;22.40;96.60
19397;DHT22;9834;48.076;11.878;2023-07-28T08:17:44;22.40;96.10
19397;DHT22;9834;48.076;11.878;2023-07-28T08:20:12;22.50;96.10
19397;DHT22;9834;48.076;11.878;2023-07-28T08:22:40;22.70;96.50
19397;DHT22;9834;48.076;11.878;2023-07-28T08:25:08;23.00;96.40
19397;DHT22;9834;48.076;11.878;2023-07-28T08:27:35;23.00;95.00
19397;DHT22;9834;48.076;11.878;2023-07-28T08:30:02;22.80;94.10
19397;DHT22;9834;48.076;11.878;2023-07-28T08:32:31;22.80;94.80
19397;DHT22;9834;48.076;11.878;2023-07-28T08:34:59;22.80;94.40
19397;DHT22;9834;48.076;11.878;2023-07-28T08:37:27;22.60;94.70
19397;DHT22;9834;48.076;11.878;2023-07-28T08:39:54;22.60;94.70
19397;DHT22;9834;48.076;11.878;2023-07-28T08:42:21;22.70;96.20
19397;DHT22;9834;48.076;11.878;2023-07-28T08:44:48;23.00;94.50
19397;DHT22;9834;48.076;11.878;2023-07-28T08:47:18;23.30;95.70
19397;DHT22;9834;48.076;11.878;2023-07-28T08:49:47;23.50;93.50
19397;DHT22;9834;48.076;11.878;2023-07-28T08:52:16;23.80;93.20
19397;DHT22;9834;48.076;11.878;2023-07-28T08:54:43;23.90;93.10
19397;DHT22;9834;48.076;11.878;2023-07-28T08:57:10;24.20;90.70
19397;DHT22;9834;48.076;11.878;2023-07-28T08:59:38;24.40;89.90
19397;DHT22;9834;48.076;11.878;2023-07-28T09:02:09;24.60;90.60
19397;DHT22;9834;48.076;11.878;2023-07-28T09:04:36;24.40;87.20
19397;DHT22;9834;48.076;11.878;2023-07-28T09:07:06;24.20;88.20
19397;DHT22;9834;48.076;11.878;2023-07-28T09:09:33;24.10;90.00
19397;DHT22;9834;48.076;11.878;2023-07-28T09:12:01;24.30;88.70
19397;DHT22;9834;48.076;11.878;2023-07-28T09:14:28;24.60;86.80
19397;DHT22;9834;48.076;11.878;2023-07-28T09:16:55;24.70;88.70
19397;DHT22;9834;48.076;11.878;2023-07-28T09:19:22;24.80;84.00
19397;DHT22;9834;48.076;11.878;2023-07-28T09:21:58;24.80;81.60
19397;DHT22;9834;48.076;11.878;2023-07-28T09:24:31;25.20;80.60
19397;DHT22;9834;48.076;11.878;2023-07-28T09:26:59;25.90;79.20
19397;DHT22;9834;48.076;11.878;2023-07-28T09:29:26;26.20;75.40
19397;DHT22;9834;48.076;11.878;2023-07-28T09:32:03;26.30;73.10
19397;DHT22;9834;48.076;11.878;2023-07-28T09:34:30;26.10;71.70
19397;DHT22;9834;48.076;11.878;2023-07-28T09:36:59;25.90;70.80
19397;DHT22;9834;48.076;11.878;2023-07-28T09:39:26;25.80;70.20
19397;DHT22;9834;48.076;11.878;2023-07-28T09:41:55;25.70;73.10
19397;DHT22;9834;48.076;11.878;2023-07-28T09:44:25;25.50;72.00
19397;DHT22;9834;48.076;11.878;2023-07-28T09:46:53;25.40;72.10
19397;DHT22;9834;48.076;11.878;2023-07-28T09:49:27;25.30;72.70
19397;DHT22;9834;48.076;11.878;2023-07-28T09:51:56;25.00;72.60
19397;DHT22;9834;48.076;11.878;2023-07-28T09:54:25;24.70;73.50
19397;DHT22;9834;48.076;11.878;2023-07-28T09:56:57;24.50;73.50
19397;DHT22;9834;48.076;11.878;2023-07-28T09:59:28;24.50;74.70
19397;DHT22;9834;48.076;11.878;2023-07-28T10:01:56;24.30;74.70
19397;DHT22;9834;48.076;11.878;2023-07-28T10:04:23;24.20;73.90
19397;DHT22;9834;48.076;11.878;2023-07-28T10:06:51;24.10;74.50
19397;DHT22;9834;48.076;11.878;2023-07-28T10:09:22;24.10;75.60
19397;DHT22;9834;48.076;11.878;2023-07-28T10:11:50;24.30;77.50
19397;DHT22;9834;48.076;11.878;2023-07-28T10:14:27;24.50;75.60
19397;DHT22;9834;48.076;11.878;2023-07-28T10:16:56;24.70;77.20
19397;DHT22;9834;48.076;11.878;2023-07-28T10:19:24;24.80;74.30
19397;DHT22;9834;48.076;11.878;2023-07-28T10:21:59;24.80;74.30
19397;DHT22;9834;48.076;11.878;2023-07-28T10:24:50;24.80;73.70
19397;DHT22;9834;48.076;11.878;2023-07-28T10:27:29;25.00;75.40
19397;DHT22;9834;48.076;11.878;2023-07-28T10:29:58;25.30;72.40
19397;DHT22;9834;48.076;11.878;2023-07-28T10:32:27;25.40;73.40
19397;DHT22;9834;48.076;11.878;2023-07-28T10:35:00;25.40;71.80
19397;DHT22;9834;48.076;11.878;2023-07-28T10:37:28;25.40;72.50
19397;DHT22;9834;48.076;11.878;2023-07-28T10:40:22;25.60;71.50
19397;DHT22;9834;48.076;11.878;2023-07-28T10:42:49;25.60;71.20
19397;DHT22;9834;48.076;11.878;2023-07-28T10:45:18;25.60;70.70
19397;DHT22;9834;48.076;11.878;2023-07-28T10:47:45;26.00;73.90
19397;DHT22;9834;48.076;11.878;2023-07-28T10:50:14;26.20;69.40
19397;DHT22;9834;48.076;11.878;2023-07-28T10:52:42;26.10;70.40
19397;DHT22;9834;48.076;11.878;2023-07-28T10:55:13;26.10;70.30
19397;DHT22;9834;48.076;11.878;2023-07-28T10:57:41;26.10;68.70
19397;DHT22;9834;48.076;11.878;2023-07-28T11:00:09;25.90;68.30
19397;DHT22;9834;48.076;11.878;2023-07-28T11:02:41;25.70;68.70
19397;DHT22;9834;48.076;11.878;2023-07-28T11:05:13;25.60;69.40
19397;DHT22;9834;48.076;11.878;2023-07-28T11:07:41;25.70;69.00
19397;DHT22;9834;48.076;11.878;2023-07-28T11:10:09;25.50;69.70
19397;DHT22;9834;48.076;11.878;2023-07-28T11:12:39;25.60;68.90
19397;DHT22;9834;48.076;11.878;2023-07-28T11:15:09;25.90;69.40
19397;DHT22;9834;48.076;11.878;2023-07-28T11:17:39;26.00;68.70
19397;DHT22;9834;48.076;11.878;2023-07-28T11:20:14;26.10;68.70
19397;DHT22;9834;48.076;11.878;2023-07-28T11:22:42;25.80;70.50
19397;DHT22;9834;48.076;11.878;2023-07-28T11:25:10;25.80;70.60
19397;DHT22;9834;48.076;11.878;2023-07-28T11:27:37;25.90;68.30
19397;DHT22;9834;48.076;11.878;2023-07-28T11:30:07;25.90;69.40
19397;DHT22;9834;48.076;11.878;2023-07-28T11:32:35;25.80;67.80
19397;DHT22;9834;48.076;11.878;2023-07-28T11:35:05;25.80;67.50
19397;DHT22;9834;48.076;11.878;2023-07-28T11:37:33;25.60;68.00
19397;DHT22;9834;48.076;11.878;2023-07-28T11:40:01;25.50;68.10
19397;DHT22;9834;48.076;11.878;2023-07-28T11:42:32;25.70;68.00
19397;DHT22;9834;48.076;11.878;2023-07-28T11:45:00;26.00;65.80
19397;DHT22;9834;48.076;11.878;2023-07-28T11:47:27;26.30;67.70
19397;DHT22;9834;48.076;11.878;2023-07-28T11:49:55;26.50;63.50
19397;DHT22;9834;48.076;11.878;2023-07-28T11:52:30;26.50;63.90
19397;DHT22;9834;48.076;11.878;2023-07-28T11:54:57;27.00;63.00
19397;DHT22;9834;48.076;11.878;2023-07-28T11:57:25;27.10;61.00
19397;DHT22;9834;48.076;11.878;2023-07-28T11:59:52;27.10;60.70
19397;DHT22;9834;48.076;11.878;2023-07-28T12:02:24;26.70;61.50
19397;DHT22;9834;48.076;11.878;2023-07-28T12:04:52;26.40;61.60
19397;DHT22;9834;48.076;11.878;2023-07-28T12:07:28;26.60;62.30
19397;DHT22;9834;48.076;11.878;2023-07-28T12:09:56;27.00;60.90
19397;DHT22;9834;48.076;11.878;2023-07-28T12:12:26;27.00;61.60
19397;DHT22;9834;48.076;11.878;2023-07-28T12:14:54;27.10;61.80
19397;DHT22;9834;48.076;11.878;2023-07-28T12:17:22;27.60;60.00
19397;DHT22;9834;48.076;11.878;2023-07-28T12:20:02;28.30;59.10
19397;DHT22;9834;48.076;11.878;2023-07-28T12:22:43;28.20;57.80
19397;DHT22;9834;48.076;11.878;2023-07-28T12:25:10;27.70;59.10
19397;DHT22;9834;48.076;11.878;2023-07-28T12:27:37;27.70;60.70
19397;DHT22;9834;48.076;11.878;2023-07-28T12:30:05;27.90;58.20
19397;DHT22;9834;48.076;11.878;2023-07-28T12:32:34;27.60;58.30
19397;DHT22;9834;48.076;11.878;2023-07-28T12:35:01;27.30;59.60
19397;DHT22;9834;48.076;11.878;2023-07-28T12:37:28;27.70;59.40
19397;DHT22;9834;48.076;11.878;2023-07-28T12:39:56;27.80;57.50
19397;DHT22;9834;48.076;11.878;2023-07-28T12:42:23;27.90;57.80
19397;DHT22;9834;48.076;11.878;2023-07-28T12:44:50;28.40;57.40
19397;DHT22;9834;48.076;11.878;2023-07-28T12:47:17;30.50;53.90
19397;DHT22;9834;48.076;11.878;2023-07-28T12:49:44;31.60;50.80
19397;DHT22;9834;48.076;11.878;2023-07-28T12:52:11;31.00;50.80
19397;DHT22;9834;48.076;11.878;2023-07-28T12:54:38;31.20;51.60
19397;DHT22;9834;48.076;11.878;2023-07-28T12:57:06;31.50;51.10
19397;DHT22;9834;48.076;11.878;2023-07-28T12:59:35;31.00;49.30
19397;DHT22;9834;48.076;11.878;2023-07-28T13:02:02;30.70;50.70
19397;DHT22;9834;48.076;11.878;2023-07-28T13:04:29;30.10;50.30
19397;DHT22;9834;48.076;11.878;2023-07-28T13:06:56;29.30;49.90
19397;DHT22;9834;48.076;11.878;2023-07-28T13:09:23;28.50;53.40
19397;DHT22;9834;48.076;11.878;2023-07-28T13:11:49;28.60;53.60
19397;DHT22;9834;48.076;11.878;2023-07-28T13:14:18;30.10;51.50
19397;DHT22;9834;48.076;11.878;2023-07-28T13:16:45;31.60;48.30
19397;DHT22;9834;48.076;11.878;2023-07-28T13:19:11;32.80;46.20
19397;DHT22;9834;48.076;11.878;2023-07-28T13:21:38;33.30;44.50
19397;DHT22;9834;48.076;11.878;2023-07-28T13:24:05;33.10;43.50
19397;DHT22;9834;48.076;11.878;2023-07-28T13:26:32;32.80;43.80
19397;DHT22;9834;48.076;11.878;2023-07-28T13:28:59;31.80;45.20
19397;DHT22;9834;48.076;11.878;2023-07-28T13:31:28;31.40;47.60
19397;DHT22;9834;48.076;11.878;2023-07-28T13:33:55;31.00;45.90
19397;DHT22;9834;48.076;11.878;2023-07-28T13:36:22;30.80;46.70
19397;DHT22;9834;48.076;11.878;2023-07-28T13:38:49;30.70;47.60
19397;DHT22;9834;48.076;11.878;2023-07-28T13:41:16;30.60;48.30
19397;DHT22;9834;48.076;11.878;2023-07-28T13:43:43;30.30;48.80
19397;DHT22;9834;48.076;11.878;2023-07-28T13:46:10;29.70;49.90
19397;DHT22;9834;48.076;11.878;2023-07-28T13:48:38;29.50;50.20
19397;DHT22;9834;48.076;11.878;2023-07-28T13:51:05;29.30;50.10
19397;DHT22;9834;48.076;11.878;2023-07-28T13:53:32;29.00;52.00
19397;DHT22;9834;48.076;11.878;2023-07-28T13:55:59;28.80;50.60
19397;DHT22;9834;48.076;11.878;2023-07-28T13:58:26;28.60;51.50
19397;DHT22;9834;48.076;11.878;2023-07-28T14:00:53;28.60;51.60
19397;DHT22;9834;48.076;11.878;2023-07-28T14:03:20;28.30;52.00
19397;DHT22;9834;48.076;11.878;2023-07-28T14:05:48;28.10;52.40
19397;DHT22;9834;48.076;11.878;2023-07-28T14:08:15;28.10;53.60
19397;DHT22;9834;48.076;11.878;2023-07-28T14:10:44;27.90;51.00
19397;DHT22;9834;48.076;11.878;2023-07-28T14:13:11;27.50;52.30
19397;DHT22;9834;48.076;11.878;2023-07-28T14:15:38;27.30;52.60
19397;DHT22;9834;48.076;11.878;2023-07-28T14:18:05;27.10;53.30
19397;DHT22;9834;48.076;11.878;2023-07-28T14:20:32;26.80;54.60
19397;DHT22;9834;48.076;11.878;2023-07-28T14:23:20;26.60;55.40
19397;DHT22;9834;48.076;11.878;2023-07-28T14:25:47;26.30;55.80
19397;DHT22;9834;48.076;11.878;2023-07-28T14:28:14;25.70;57.90
19397;DHT22;9834;48.076;11.878;2023-07-28T14:30:41;25.40;58.00
19397;DHT22;9834;48.076;11.878;2023-07-28T14:33:12;25.00;58.70
19397;DHT22;9834;48.076;11.878;2023-07-28T14:35:39;24.60;59.10
19397;DHT22;9834;48.076;11.878;2023-07-28T14:38:07;24.40;59.90
19397;DHT22;9834;48.076;11.878;2023-07-28T14:40:34;24.10;62.20
19397;DHT22;9834;48.076;11.878;2023-07-28T14:43:01;23.70;64.70
19397;DHT22;9834;48.076;11.878;2023-07-28T14:45:28;22.50;76.70
19397;DHT22;9834;48.076;11.878;2023-07-28T14:47:55;20.80;92.10
19397;DHT22;9834;48.076;11.878;2023-07-28T14:50:22;19.80;99.90
19397;DHT22;9834;48.076;11.878;2023-07-28T14:52:49;19.30;99.90
19397;DHT22;9834;48.076;11.878;2023-07-28T14:55:17;19.10;99.90
19397;DHT22;9834;48.076;11.878;2023-07-28T15:01:14;19.20;99.90
19397;DHT22;9834;48.076;11.878;2023-07-28T15:03:41;20.00;99.90
19397;DHT22;9834;48.076;11.878;2023-07-28T15:19:39;21.60;99.90
19397;DHT22;9834;48.076;11.878;2023-07-28T15:45:42;27.60;89.00
19397;DHT22;9834;48.076;11.878;2023-07-28T15:48:09;29.60;74.10
19397;DHT22;9834;48.076;11.878;2023-07-28T15:50:40;31.20;66.60
19397;DHT22;9834;48.076;11.878;2023-07-28T15:53:09;32.90;58.90
19397;DHT22;9834;48.076;11.878;2023-07-28T15:55:49;34.30;54.10
19397;DHT22;9834;48.076;11.878;2023-07-28T15:58:23;35.30;50.60
19397;DHT22;9834;48.076;11.878;2023-07-28T16:00:54;36.30;46.70
19397;DHT22;9834;48.076;11.878;2023-07-28T16:03:21;35.40;47.50
19397;DHT22;9834;48.076;11.878;2023-07-28T16:05:51;35.10;48.30
19397;DHT22;9834;48.076;11.878;2023-07-28T16:08:25;35.90;46.00
19397;DHT22;9834;48.076;11.878;2023-07-28T16:10:54;34.30;49.00
19397;DHT22;9834;48.076;11.878;2023-07-28T16:13:21;32.30;52.30
19397;DHT22;9834;48.076;11.878;2023-07-28T16:15:48;31.10;55.20
19397;DHT22;9834;48.076;11.878;2023-07-28T16:18:16;31.70;54.90